7QANK FWSM-FWCM
Flight info
| Callsign | 7QANK |
|---|---|
| Flight time | N/A |
| Altitude | 9000 |
| Route | DVL |
| Aircraft | C172/L-SDFG/C |
Departure
| Time | 2026-05-01 14:05 |
|---|---|
| Airport | Salima Airport (FWSM) |
Arrival
| Time | N/A |
|---|---|
| Airport | Club Makokola Airport (FWCM) |
| Time | Latitude | Longitude | Altitude | Speed | Heading |
|---|---|---|---|---|---|
| 2026-05-01 13:56 | -13.75762 | 34.58339 | 1674 ft | 0 kts | 77° |
| 2026-05-01 13:59 | -13.75758 | 34.58351 | 1683 ft | 5 kts | 55° |
| 2026-05-01 13:59 | -13.75727 | 34.58381 | 1676 ft | 3 kts | 65° |
| 2026-05-01 14:00 | -13.75726 | 34.58382 | 1676 ft | 0 kts | 296° |
| 2026-05-01 14:00 | -13.75719 | 34.58372 | 1678 ft | 0 kts | 47° |
| 2026-05-01 14:00 | -13.75718 | 34.58370 | 1678 ft | 3 kts | 35° |
| 2026-05-01 14:00 | -13.75705 | 34.58359 | 1675 ft | 1 kts | 46° |
| 2026-05-01 14:01 | -13.75699 | 34.58352 | 1672 ft | 0 kts | 52° |
| 2026-05-01 14:01 | -13.75693 | 34.58356 | 1679 ft | 4 kts | 27° |
| 2026-05-01 14:01 | -13.75661 | 34.58364 | 1675 ft | 6 kts | 1° |
| 2026-05-01 14:01 | -13.75608 | 34.58366 | 1674 ft | 9 kts | 2° |
| 2026-05-01 14:02 | -13.75549 | 34.58371 | 1672 ft | 7 kts | 18° |
| 2026-05-01 14:02 | -13.75541 | 34.58388 | 1677 ft | 0 kts | 127° |
| 2026-05-01 14:02 | -13.75556 | 34.58403 | 1672 ft | 2 kts | 156° |
| 2026-05-01 14:02 | -13.75558 | 34.58404 | 1677 ft | 0 kts | 157° |
| 2026-05-01 14:04 | -13.75574 | 34.58409 | 1673 ft | 14 kts | 161° |
| 2026-05-01 14:04 | -13.75802 | 34.58496 | 1678 ft | 55 kts | 158° |
| 2026-05-01 14:04 | -13.76247 | 34.58646 | 1741 ft | 72 kts | 159° |
| 2026-05-01 14:04 | -13.76755 | 34.58778 | 1899 ft | 78 kts | 160° |
| 2026-05-01 14:05 | -13.77297 | 34.58986 | 2001 ft | 88 kts | 159° |
| 2026-05-01 14:05 | -13.77855 | 34.59138 | 2176 ft | 90 kts | 197° |
| 2026-05-01 14:05 | -13.78468 | 34.59278 | 2381 ft | 90 kts | 194° |
| 2026-05-01 14:05 | -13.79072 | 34.59280 | 2601 ft | 93 kts | 158° |
| 2026-05-01 14:06 | -13.79577 | 34.58785 | 2695 ft | 103 kts | 133° |
| 2026-05-01 14:06 | -13.79989 | 34.58208 | 2871 ft | 105 kts | 115° |
| 2026-05-01 14:06 | -13.80016 | 34.57436 | 2990 ft | 113 kts | 76° |
| 2026-05-01 14:06 | -13.79781 | 34.56652 | 3072 ft | 120 kts | 68° |
| 2026-05-01 14:07 | -13.79437 | 34.55873 | 3151 ft | 121 kts | 63° |
| 2026-05-01 14:07 | -13.79068 | 34.55109 | 3305 ft | 118 kts | 62° |
| 2026-05-01 14:07 | -13.78653 | 34.54382 | 3390 ft | 118 kts | 53° |
| 2026-05-01 14:08 | -13.77312 | 34.53475 | 3490 ft | 120 kts | 7° |
| 2026-05-01 14:08 | -13.76487 | 34.53502 | 3625 ft | 115 kts | 345° |
| 2026-05-01 14:08 | -13.75807 | 34.53937 | 3675 ft | 117 kts | 310° |
| 2026-05-01 14:08 | -13.75512 | 34.54691 | 3733 ft | 118 kts | 269° |
| 2026-05-01 14:09 | -13.75838 | 34.55446 | 3767 ft | 119 kts | 221° |
| 2026-05-01 14:09 | -13.76526 | 34.55946 | 3789 ft | 123 kts | 214° |
| 2026-05-01 14:09 | -13.77212 | 34.56421 | 3791 ft | 117 kts | 214° |
| 2026-05-01 14:09 | -13.77889 | 34.56864 | 3776 ft | 113 kts | 213° |
| 2026-05-01 14:10 | -13.78541 | 34.57285 | 3823 ft | 107 kts | 213° |
| 2026-05-01 14:10 | -13.79133 | 34.57642 | 4002 ft | 92 kts | 214° |
| 2026-05-01 14:10 | -13.79630 | 34.58057 | 4035 ft | 95 kts | 225° |
| 2026-05-01 14:10 | -13.80077 | 34.58496 | 4157 ft | 86 kts | 226° |
| 2026-05-01 14:11 | -13.80526 | 34.58948 | 4194 ft | 90 kts | 227° |
| 2026-05-01 14:11 | -13.81441 | 34.59870 | 4299 ft | 93 kts | 226° |
| 2026-05-01 14:11 | -13.81892 | 34.60337 | 4366 ft | 91 kts | 227° |
| 2026-05-01 14:12 | -13.82291 | 34.60852 | 4396 ft | 92 kts | 241° |
| 2026-05-01 14:12 | -13.82575 | 34.61442 | 4439 ft | 93 kts | 245° |
| 2026-05-01 14:12 | -13.82850 | 34.62046 | 4494 ft | 92 kts | 247° |
| 2026-05-01 14:12 | -13.83117 | 34.62647 | 4536 ft | 93 kts | 246° |
| 2026-05-01 14:13 | -13.83428 | 34.63232 | 4580 ft | 94 kts | 240° |
| 2026-05-01 14:13 | -13.83675 | 34.63603 | 4612 ft | 94 kts | 236° |
| 2026-05-01 14:13 | -13.84187 | 34.64329 | 4670 ft | 95 kts | 233° |
| 2026-05-01 14:13 | -13.84606 | 34.64847 | 4721 ft | 95 kts | 229° |
| 2026-05-01 14:14 | -13.85099 | 34.65305 | 4760 ft | 96 kts | 217° |
| 2026-05-01 14:14 | -13.85683 | 34.65639 | 4821 ft | 95 kts | 211° |
| 2026-05-01 14:14 | -13.86230 | 34.66031 | 4858 ft | 94 kts | 221° |
| 2026-05-01 14:14 | -13.86643 | 34.66517 | 4925 ft | 92 kts | 229° |
| 2026-05-01 14:15 | -13.87073 | 34.67021 | 4949 ft | 94 kts | 229° |
| 2026-05-01 14:15 | -13.87511 | 34.67533 | 4989 ft | 95 kts | 230° |
| 2026-05-01 14:15 | -13.87945 | 34.68038 | 5030 ft | 95 kts | 230° |
| 2026-05-01 14:15 | -13.88376 | 34.68543 | 5078 ft | 94 kts | 229° |
| 2026-05-01 14:16 | -13.88820 | 34.69058 | 5115 ft | 95 kts | 229° |
| 2026-05-01 14:16 | -13.89258 | 34.69563 | 5157 ft | 95 kts | 229° |
| 2026-05-01 14:16 | -13.89693 | 34.70067 | 5197 ft | 95 kts | 230° |
| 2026-05-01 14:16 | -13.90132 | 34.70569 | 5238 ft | 95 kts | 226° |
| 2026-05-01 14:17 | -13.90613 | 34.71044 | 5279 ft | 95 kts | 226° |
| 2026-05-01 14:17 | -13.91080 | 34.71517 | 5313 ft | 95 kts | 226° |
| 2026-05-01 14:17 | -13.91394 | 34.71841 | 5342 ft | 95 kts | 225° |
| 2026-05-01 14:17 | -13.92013 | 34.72484 | 5387 ft | 95 kts | 226° |
| 2026-05-01 14:18 | -13.92475 | 34.72966 | 5418 ft | 95 kts | 226° |
| 2026-05-01 14:18 | -13.92936 | 34.73450 | 5450 ft | 95 kts | 226° |
| 2026-05-01 14:18 | -13.93389 | 34.73925 | 5504 ft | 90 kts | 226° |
| 2026-05-01 14:18 | -13.93678 | 34.74228 | 5528 ft | 90 kts | 226° |
| 2026-05-01 14:19 | -13.93715 | 34.74268 | 5531 ft | 90 kts | 226° |